Penzance, United Kingdom
Current Conditions -  °F | °C
As of 4:50 AM on Friday 31 Oct 2014 (Local Time) from EGDR Reporting Station
Haze Haze  
Wind Chill: 59°   Ceiling: 25000
Heat Index: 59°   Visibility: 6mi
Dew Point: 55°   Wind: 14mph
Humidity: 88%   Direction: 160°SSE
Pressure: 29.91"   Gusts: 25mph
Location:  50.12°N, 5.54°W
Report Text: EGDR 310450Z 16012G22KT 9999 HZ FEW010 BKN250 15/13 Q1013 BLU
Loading
Personal Weather Stations






























Interactive Weather Map
Tropical Storm Tracking
New forecast layout! Learn more

10-Day Weather Forecast

Advertisements
Track Severe Weather on mobile